Time;durP1;ratioP1;P1;durP2;ratioP2;P2;SDS_P1;SDS_P2;PMS_P1;PMS_P2;Temp;Humidity;BMP_temperature;BMP_pressure;BME280_temperature;BME280_humidity;BME280_pressure;Samples;Min_cycle;Max_cycle;Signal;HPM_P1;HPM_P2
2023/12/21 00:00:57;;;;;;;3.65;1.65;;;;;;;;;;4959911;28;20041;-89
2023/12/21 00:03:23;;;;;;;3.40;1.88;;;;;;;;;;4960212;28;20046;-88
2023/12/21 00:05:48;;;;;;;3.33;1.65;;;;;;;;;;4959768;28;20035;-87
2023/12/21 00:08:14;;;;;;;2.55;1.50;;;;;;;;;;4959473;28;20043;-88
2023/12/21 00:10:39;;;;;;;2.15;1.42;;;;;;;;;;4960767;28;20032;-88
2023/12/21 00:13:05;;;;;;;2.60;1.45;;;;;;;;;;4958510;28;20039;-88
2023/12/21 00:15:30;;;;;;;2.55;1.40;;;;;;;;;;4960854;28;20051;-88
2023/12/21 00:17:56;;;;;;;1.75;1.20;;;;;;;;;;4960402;28;20027;-88
2023/12/21 00:20:21;;;;;;;2.92;1.20;;;;;;;;;;4960196;28;20035;-89
2023/12/21 00:22:47;;;;;;;2.17;1.40;;;;;;;;;;4960492;29;20031;-87
2023/12/21 00:25:12;;;;;;;3.60;1.40;;;;;;;;;;4961271;28;20039;-88
2023/12/21 00:27:38;;;;;;;2.47;1.40;;;;;;;;;;4960623;28;20034;-88
2023/12/21 00:30:05;;;;;;;1.95;1.30;;;;;;;;;;4960279;28;20417;-88
2023/12/21 00:32:30;;;;;;;2.30;1.40;;;;;;;;;;4958831;29;20133;-88
2023/12/21 00:34:56;;;;;;;1.88;1.20;;;;;;;;;;4959655;28;20438;-89
2023/12/21 00:37:22;;;;;;;1.48;1.15;;;;;;;;;;4959398;28;20043;-89
2023/12/21 00:39:47;;;;;;;2.20;1.23;;;;;;;;;;4969861;28;20068;-88
2023/12/21 00:42:13;;;;;;;2.00;0.90;;;;;;;;;;4957773;29;20063;-88
2023/12/21 00:44:38;;;;;;;2.95;1.00;;;;;;;;;;4958344;28;20782;-88
2023/12/21 00:47:04;;;;;;;1.80;1.00;;;;;;;;;;4960894;28;20474;-87
2023/12/21 00:49:29;;;;;;;1.40;0.90;;;;;;;;;;4959021;28;20035;-88
2023/12/21 00:51:55;;;;;;;1.05;0.88;;;;;;;;;;4958210;28;20034;-88
2023/12/21 00:54:20;;;;;;;0.90;0.80;;;;;;;;;;4956124;28;20094;-89
2023/12/21 00:56:46;;;;;;;1.00;0.90;;;;;;;;;;4957059;29;20104;-88
2023/12/21 00:59:11;;;;;;;1.50;0.88;;;;;;;;;;4958271;28;20405;-86
2023/12/21 01:01:37;;;;;;;1.10;0.80;;;;;;;;;;4959648;28;20042;-87
2023/12/21 01:04:02;;;;;;;1.13;0.90;;;;;;;;;;4957514;28;20123;-88
2023/12/21 01:06:28;;;;;;;1.10;0.80;;;;;;;;;;4959664;28;20346;-87
2023/12/21 01:08:53;;;;;;;2.35;0.73;;;;;;;;;;4958621;28;20461;-88
2023/12/21 01:11:19;;;;;;;1.67;0.88;;;;;;;;;;4970157;28;20098;-89
2023/12/21 01:13:44;;;;;;;1.58;0.80;;;;;;;;;;4952083;28;20452;-88
2023/12/21 01:16:10;;;;;;;2.13;0.90;;;;;;;;;;4958507;28;20413;-88
2023/12/21 01:18:35;;;;;;;4.25;0.90;;;;;;;;;;4958398;28;20043;-87
2023/12/21 01:21:01;;;;;;;0.80;0.80;;;;;;;;;;4973336;28;20043;-88
2023/12/21 01:23:26;;;;;;;1.63;0.80;;;;;;;;;;4954001;28;20069;-88
2023/12/21 01:25:51;;;;;;;0.65;0.60;;;;;;;;;;4953539;29;20166;-88
2023/12/21 01:28:17;;;;;;;0.70;0.60;;;;;;;;;;4958805;28;20027;-89
2023/12/21 01:30:42;;;;;;;0.98;0.70;;;;;;;;;;4956364;29;21654;-88
2023/12/21 01:33:08;;;;;;;1.35;0.80;;;;;;;;;;4956120;29;20031;-88
2023/12/21 01:35:34;;;;;;;0.57;0.57;;;;;;;;;;4956794;28;20059;-87
2023/12/21 01:37:59;;;;;;;1.42;0.60;;;;;;;;;;4958394;28;20031;-88
2023/12/21 01:40:25;;;;;;;1.10;0.70;;;;;;;;;;4956751;28;20035;-88
2023/12/21 01:42:50;;;;;;;1.15;0.75;;;;;;;;;;4953500;29;20483;-89
2023/12/21 01:45:16;;;;;;;0.93;0.70;;;;;;;;;;4957924;28;20501;-88
2023/12/21 01:47:42;;;;;;;1.13;0.85;;;;;;;;;;4949133;29;20552;-88
2023/12/21 01:50:11;;;;;;;1.13;0.80;;;;;;;;;;4958140;28;20038;-88
2023/12/21 01:52:37;;;;;;;1.23;0.77;;;;;;;;;;4951117;28;20476;-88
2023/12/21 01:55:04;;;;;;;0.95;0.70;;;;;;;;;;4959062;28;20122;-88
2023/12/21 01:57:29;;;;;;;1.83;1.00;;;;;;;;;;4957915;28;20027;-88
2023/12/21 01:59:55;;;;;;;0.77;0.73;;;;;;;;;;4958263;28;20402;-88
2023/12/21 02:02:20;;;;;;;1.45;0.80;;;;;;;;;;4955586;28;20099;-88
2023/12/21 02:04:47;;;;;;;0.75;0.60;;;;;;;;;;4958410;28;20035;-89
2023/12/21 02:07:12;;;;;;;1.00;0.90;;;;;;;;;;4954116;28;20545;-88
2023/12/21 02:09:38;;;;;;;1.42;0.95;;;;;;;;;;4958680;28;20039;-88
2023/12/21 02:12:04;;;;;;;0.93;0.85;;;;;;;;;;4948605;28;20126;-87
2023/12/21 02:14:29;;;;;;;3.15;1.10;;;;;;;;;;4970122;28;20042;-86
2023/12/21 02:17:08;;;;;;;1.42;1.00;;;;;;;;;;4959051;28;20035;-88
2023/12/21 02:19:34;;;;;;;1.33;0.88;;;;;;;;;;4958378;28;20067;-88
2023/12/21 02:22:01;;;;;;;1.50;1.10;;;;;;;;;;4957883;28;20038;-88
2023/12/21 02:24:27;;;;;;;1.10;0.90;;;;;;;;;;4958652;28;20043;-88
2023/12/21 02:26:52;;;;;;;1.67;1.10;;;;;;;;;;4958421;28;20035;-88
2023/12/21 02:29:18;;;;;;;2.22;0.93;;;;;;;;;;4957074;28;20051;-89
2023/12/21 02:31:43;;;;;;;1.10;0.85;;;;;;;;;;4957114;28;20505;-86
2023/12/21 02:34:09;;;;;;;1.30;0.90;;;;;;;;;;4957684;28;20051;-87
2023/12/21 02:36:35;;;;;;;1.20;0.82;;;;;;;;;;4967938;28;20422;-87
2023/12/21 02:39:00;;;;;;;1.70;0.90;;;;;;;;;;4957152;29;20147;-88
2023/12/21 02:41:26;;;;;;;0.70;0.70;;;;;;;;;;4957993;28;20457;-89
2023/12/21 02:43:51;;;;;;;2.25;0.80;;;;;;;;;;4955518;28;20023;-88
2023/12/21 02:46:19;;;;;;;1.27;1.05;;;;;;;;;;4958356;28;20035;-88
2023/12/21 02:48:45;;;;;;;1.42;0.90;;;;;;;;;;4956822;28;20098;-88
2023/12/21 02:51:10;;;;;;;2.45;1.10;;;;;;;;;;4958039;28;20043;-88
2023/12/21 02:53:36;;;;;;;1.70;1.10;;;;;;;;;;4957803;28;20510;-88
2023/12/21 02:56:02;;;;;;;1.30;1.00;;;;;;;;;;4958324;28;20043;-88
2023/12/21 02:58:28;;;;;;;1.40;0.90;;;;;;;;;;4958329;28;20086;-88
2023/12/21 03:00:53;;;;;;;2.95;1.30;;;;;;;;;;4958108;28;20077;-88
2023/12/21 03:03:19;;;;;;;1.63;1.10;;;;;;;;;;4958152;28;20055;-88
2023/12/21 03:05:44;;;;;;;2.40;1.10;;;;;;;;;;4957773;28;20039;-88
2023/12/21 03:08:10;;;;;;;1.52;1.05;;;;;;;;;;4960442;28;20045;-88
2023/12/21 03:10:35;;;;;;;1.17;0.93;;;;;;;;;;4961476;28;20043;-87
2023/12/21 03:13:00;;;;;;;1.42;0.88;;;;;;;;;;4972082;28;20035;-87
2023/12/21 03:15:26;;;;;;;1.60;1.00;;;;;;;;;;4957747;29;20107;-88
2023/12/21 03:17:52;;;;;;;1.33;1.00;;;;;;;;;;4954254;28;20035;-89
2023/12/21 03:20:17;;;;;;;1.15;0.80;;;;;;;;;;4961493;28;20043;-88
2023/12/21 03:22:43;;;;;;;2.45;1.10;;;;;;;;;;4961687;28;20382;-89
2023/12/21 03:25:08;;;;;;;1.00;0.90;;;;;;;;;;4960856;28;20039;-88
2023/12/21 03:27:34;;;;;;;1.05;0.85;;;;;;;;;;4961738;28;20043;-86
2023/12/21 03:30:00;;;;;;;1.58;1.10;;;;;;;;;;4960838;28;20429;-88
2023/12/21 03:32:27;;;;;;;1.60;1.10;;;;;;;;;;4961113;28;20039;-89
2023/12/21 03:34:52;;;;;;;2.63;1.45;;;;;;;;;;4961727;28;20082;-88
2023/12/21 03:37:18;;;;;;;2.28;1.60;;;;;;;;;;4976310;28;20114;-88
2023/12/21 03:39:43;;;;;;;3.38;1.58;;;;;;;;;;4960688;28;20035;-88
2023/12/21 03:42:09;;;;;;;3.15;1.70;;;;;;;;;;4959762;28;20046;-89
2023/12/21 03:44:34;;;;;;;4.30;1.20;;;;;;;;;;4959053;28;20474;-87
2023/12/21 03:47:00;;;;;;;2.78;1.25;;;;;;;;;;4961232;28;20045;-88
2023/12/21 03:49:28;;;;;;;1.70;1.20;;;;;;;;;;4960933;28;20086;-88
2023/12/21 03:51:57;;;;;;;2.13;1.40;;;;;;;;;;4960973;28;20386;-88
2023/12/21 03:54:23;;;;;;;1.73;1.25;;;;;;;;;;4961188;28;20031;-89
2023/12/21 03:56:48;;;;;;;1.73;1.10;;;;;;;;;;4961243;28;20101;-88
2023/12/21 03:59:14;;;;;;;1.55;1.05;;;;;;;;;;4960630;28;20035;-88
2023/12/21 04:01:39;;;;;;;2.20;1.10;;;;;;;;;;4960316;28;20546;-88
2023/12/21 04:04:05;;;;;;;2.20;1.48;;;;;;;;;;4960900;28;20035;-88
2023/12/21 04:06:32;;;;;;;3.05;1.60;;;;;;;;;;4957807;29;20038;-88
2023/12/21 04:08:57;;;;;;;3.05;1.70;;;;;;;;;;4971035;28;20167;-88
2023/12/21 04:11:23;;;;;;;1.90;1.40;;;;;;;;;;4959789;29;20070;-88
2023/12/21 04:13:49;;;;;;;2.60;1.60;;;;;;;;;;4959971;28;20114;-88
2023/12/21 04:16:15;;;;;;;3.03;1.73;;;;;;;;;;4959027;28;20043;-88
2023/12/21 04:18:40;;;;;;;1.95;1.42;;;;;;;;;;4960253;28;20110;-88
2023/12/21 04:21:07;;;;;;;1.98;1.40;;;;;;;;;;4958289;28;20059;-87
2023/12/21 04:23:33;;;;;;;1.98;1.40;;;;;;;;;;4960700;28;20450;-87
2023/12/21 04:25:58;;;;;;;2.25;1.40;;;;;;;;;;4959087;28;20023;-87
2023/12/21 04:28:24;;;;;;;3.40;1.60;;;;;;;;;;4958942;28;20501;-87
2023/12/21 04:30:49;;;;;;;2.35;1.70;;;;;;;;;;4969031;28;20038;-88
2023/12/21 04:33:16;;;;;;;2.92;1.98;;;;;;;;;;4959469;28;20042;-88
2023/12/21 04:35:44;;;;;;;1.95;1.30;;;;;;;;;;4960520;28;20374;-88
2023/12/21 04:38:10;;;;;;;2.22;1.50;;;;;;;;;;4959416;29;20031;-88
2023/12/21 04:40:36;;;;;;;1.88;1.40;;;;;;;;;;4959147;28;20041;-87
2023/12/21 04:43:02;;;;;;;3.08;1.77;;;;;;;;;;4961361;28;20031;-88
2023/12/21 04:45:28;;;;;;;3.13;1.20;;;;;;;;;;4968235;28;20031;-88
2023/12/21 04:47:53;;;;;;;4.13;1.40;;;;;;;;;;4970300;28;20043;-88
2023/12/21 04:50:20;;;;;;;1.52;0.95;;;;;;;;;;4956993;28;20039;-87
2023/12/21 04:52:46;;;;;;;1.42;1.10;;;;;;;;;;4959138;28;20062;-87
2023/12/21 04:55:12;;;;;;;1.88;1.38;;;;;;;;;;4952069;28;20055;-88
2023/12/21 04:57:38;;;;;;;2.50;1.40;;;;;;;;;;4958473;28;20043;-88
2023/12/21 05:00:06;;;;;;;2.20;1.50;;;;;;;;;;4957861;28;20102;-87
2023/12/21 05:02:32;;;;;;;1.45;1.15;;;;;;;;;;4959103;28;20043;-88
2023/12/21 05:04:57;;;;;;;1.80;1.15;;;;;;;;;;4958479;29;20039;-87
2023/12/21 05:07:23;;;;;;;2.22;1.40;;;;;;;;;;4960499;28;20023;-87
2023/12/21 05:09:48;;;;;;;1.90;1.30;;;;;;;;;;4959572;28;20039;-86
2023/12/21 05:12:14;;;;;;;1.98;1.20;;;;;;;;;;4968199;28;20086;-87
2023/12/21 05:14:39;;;;;;;1.55;1.00;;;;;;;;;;4958284;28;20023;-88
2023/12/21 05:17:05;;;;;;;1.92;0.82;;;;;;;;;;4957697;28;20427;-85
2023/12/21 05:19:30;;;;;;;1.20;1.10;;;;;;;;;;4957214;28;20051;-88
2023/12/21 05:21:56;;;;;;;2.08;1.30;;;;;;;;;;4950112;28;20110;-87
2023/12/21 05:24:21;;;;;;;1.42;1.00;;;;;;;;;;4958687;28;20039;-86
2023/12/21 05:26:47;;;;;;;2.42;1.45;;;;;;;;;;4972960;28;20050;-88
2023/12/21 05:29:12;;;;;;;2.97;1.40;;;;;;;;;;4959208;28;20031;-88
2023/12/21 05:31:38;;;;;;;1.40;1.10;;;;;;;;;;4957816;28;20806;-88
2023/12/21 05:34:04;;;;;;;3.85;1.40;;;;;;;;;;4958732;28;20054;-87
2023/12/21 05:36:29;;;;;;;2.72;1.20;;;;;;;;;;4952980;28;20078;-87
2023/12/21 05:38:55;;;;;;;1.88;1.20;;;;;;;;;;4959139;28;20066;-88
2023/12/21 05:41:20;;;;;;;3.60;1.90;;;;;;;;;;4956516;28;20054;-88
2023/12/21 05:43:46;;;;;;;1.92;1.15;;;;;;;;;;4957314;29;20031;-86
2023/12/21 05:46:11;;;;;;;2.25;1.20;;;;;;;;;;4958442;28;20031;-87
2023/12/21 05:48:37;;;;;;;1.40;1.10;;;;;;;;;;4952874;29;20047;-87
2023/12/21 05:51:03;;;;;;;2.85;1.30;;;;;;;;;;4951579;29;20054;-86
2023/12/21 05:53:33;;;;;;;2.10;1.40;;;;;;;;;;4955207;29;20043;-87
2023/12/21 05:55:59;;;;;;;2.22;1.20;;;;;;;;;;4956942;28;20027;-87
2023/12/21 05:58:24;;;;;;;1.77;1.30;;;;;;;;;;4956180;28;20091;-88
2023/12/21 06:00:50;;;;;;;2.83;1.40;;;;;;;;;;4961587;28;20434;-89
2023/12/21 06:03:15;;;;;;;3.22;1.70;;;;;;;;;;4960412;28;20035;-87
2023/12/21 06:05:41;;;;;;;2.45;1.60;;;;;;;;;;4953109;28;20043;-87
2023/12/21 06:08:06;;;;;;;1.50;1.10;;;;;;;;;;4957955;28;20035;-87
2023/12/21 06:10:33;;;;;;;5.13;1.40;;;;;;;;;;4955916;28;20033;-86
2023/12/21 06:12:58;;;;;;;1.63;1.30;;;;;;;;;;4971051;28;20046;-86
2023/12/21 06:15:24;;;;;;;1.80;1.30;;;;;;;;;;4956676;28;20098;-87
2023/12/21 06:17:49;;;;;;;2.75;1.90;;;;;;;;;;4973601;28;20042;-88
2023/12/21 06:20:15;;;;;;;2.40;1.60;;;;;;;;;;4958646;28;20023;-88
2023/12/21 06:22:41;;;;;;;2.50;1.70;;;;;;;;;;4957725;29;20087;-87
2023/12/21 06:25:07;;;;;;;2.30;1.42;;;;;;;;;;4958752;28;20082;-87
2023/12/21 06:27:32;;;;;;;2.85;1.30;;;;;;;;;;4958502;28;20031;-86
2023/12/21 06:29:58;;;;;;;2.42;1.50;;;;;;;;;;4958415;28;20069;-87
2023/12/21 06:32:24;;;;;;;3.05;1.40;;;;;;;;;;4973344;28;20395;-88
2023/12/21 06:34:50;;;;;;;2.03;1.38;;;;;;;;;;4959829;29;20034;-89
2023/12/21 06:37:16;;;;;;;3.97;1.20;;;;;;;;;;4952318;28;20035;-87
2023/12/21 06:39:42;;;;;;;2.45;1.40;;;;;;;;;;4955859;28;20453;-89
2023/12/21 06:42:07;;;;;;;1.77;1.10;;;;;;;;;;4954702;28;20090;-89
2023/12/21 06:44:32;;;;;;;1.55;1.20;;;;;;;;;;4957247;28;20090;-88
2023/12/21 06:46:58;;;;;;;1.65;1.10;;;;;;;;;;4972164;28;20026;-86
2023/12/21 06:49:23;;;;;;;1.98;1.20;;;;;;;;;;4958870;28;20082;-86
2023/12/21 06:51:49;;;;;;;2.67;1.25;;;;;;;;;;4949769;29;20490;-88
2023/12/21 06:54:14;;;;;;;3.17;1.13;;;;;;;;;;4957706;28;20126;-88
2023/12/21 06:56:40;;;;;;;1.80;1.13;;;;;;;;;;4958288;28;20066;-88
2023/12/21 06:59:06;;;;;;;1.38;1.10;;;;;;;;;;4958439;28;20038;-88
2023/12/21 07:01:31;;;;;;;3.42;1.23;;;;;;;;;;4955360;28;20050;-87
2023/12/21 07:03:58;;;;;;;1.25;1.00;;;;;;;;;;4957854;28;20054;-88
2023/12/21 07:06:25;;;;;;;1.50;1.10;;;;;;;;;;4958736;28;20067;-88
2023/12/21 07:08:51;;;;;;;4.57;1.10;;;;;;;;;;4958500;28;20039;-88
2023/12/21 07:11:17;;;;;;;1.20;0.90;;;;;;;;;;4957777;28;20113;-87
2023/12/21 07:13:43;;;;;;;1.45;0.98;;;;;;;;;;4956835;28;20035;-86
2023/12/21 07:16:10;;;;;;;1.45;0.95;;;;;;;;;;4956709;28;20027;-86
2023/12/21 07:18:35;;;;;;;1.85;1.15;;;;;;;;;;4956065;28;20035;-87
2023/12/21 07:21:03;;;;;;;1.90;1.10;;;;;;;;;;4954807;29;20093;-86
2023/12/21 07:23:28;;;;;;;2.00;1.20;;;;;;;;;;4970496;28;20062;-87
2023/12/21 07:25:54;;;;;;;2.42;1.10;;;;;;;;;;4955112;28;20032;-86
2023/12/21 07:28:19;;;;;;;1.02;0.88;;;;;;;;;;4956789;28;20047;-88
2023/12/21 07:30:45;;;;;;;1.70;1.10;;;;;;;;;;4955807;28;20121;-88
2023/12/21 07:33:10;;;;;;;1.33;1.08;;;;;;;;;;4956541;28;20047;-86
2023/12/21 07:35:39;;;;;;;1.40;0.90;;;;;;;;;;4955117;28;20120;-86
2023/12/21 07:38:06;;;;;;;1.35;1.00;;;;;;;;;;4956320;28;20172;-87
2023/12/21 07:40:31;;;;;;;1.45;1.08;;;;;;;;;;4950541;28;20090;-89
2023/12/21 07:42:57;;;;;;;1.85;1.20;;;;;;;;;;4957069;28;20039;-86
2023/12/21 07:45:22;;;;;;;1.88;1.20;;;;;;;;;;4956126;28;20050;-86
2023/12/21 07:47:48;;;;;;;1.10;1.00;;;;;;;;;;4955020;28;20061;-87
2023/12/21 07:50:13;;;;;;;1.88;1.20;;;;;;;;;;4951908;28;20040;-86
2023/12/21 07:52:39;;;;;;;2.13;1.10;;;;;;;;;;4957931;28;20070;-87
2023/12/21 07:55:06;;;;;;;1.45;1.10;;;;;;;;;;4960173;28;20043;-87
2023/12/21 07:57:32;;;;;;;1.63;1.10;;;;;;;;;;4956700;28;20130;-88
2023/12/21 07:59:57;;;;;;;1.45;0.90;;;;;;;;;;4959040;28;20031;-88
2023/12/21 08:02:23;;;;;;;1.55;0.90;;;;;;;;;;4960360;28;20047;-88
2023/12/21 08:04:48;;;;;;;1.92;1.20;;;;;;;;;;4959941;28;20036;-86
2023/12/21 08:07:14;;;;;;;1.38;0.98;;;;;;;;;;4960230;28;20490;-87
2023/12/21 08:09:39;;;;;;;2.03;1.20;;;;;;;;;;4961033;28;20418;-88
2023/12/21 08:12:05;;;;;;;1.35;1.00;;;;;;;;;;4960121;28;20465;-89
2023/12/21 08:14:35;;;;;;;2.45;1.00;;;;;;;;;;4960060;28;20086;-89
2023/12/21 08:17:03;;;;;;;1.08;0.93;;;;;;;;;;4960737;28;20066;-88
2023/12/21 08:19:28;;;;;;;1.52;1.10;;;;;;;;;;4961312;28;20506;-88
2023/12/21 08:21:54;;;;;;;1.80;1.00;;;;;;;;;;4960977;28;20050;-88
2023/12/21 08:24:19;;;;;;;1.88;1.20;;;;;;;;;;4960688;28;20034;-88
2023/12/21 08:26:45;;;;;;;2.00;1.17;;;;;;;;;;4957201;28;20035;-88
2023/12/21 08:29:10;;;;;;;1.88;1.30;;;;;;;;;;4961024;28;20035;-89
2023/12/21 08:31:36;;;;;;;2.13;1.08;;;;;;;;;;4960737;28;20039;-89
2023/12/21 08:34:02;;;;;;;1.48;0.90;;;;;;;;;;4971721;28;20042;-89
2023/12/21 08:36:27;;;;;;;2.47;1.25;;;;;;;;;;4959156;28;20051;-87
2023/12/21 08:38:53;;;;;;;1.70;1.00;;;;;;;;;;4961106;28;20026;-88
2023/12/21 08:41:18;;;;;;;2.17;1.30;;;;;;;;;;4959099;28;20117;-87
2023/12/21 08:43:45;;;;;;;1.80;1.17;;;;;;;;;;4955276;28;20067;-88
2023/12/21 08:46:10;;;;;;;1.48;1.08;;;;;;;;;;4960098;28;20413;-89
2023/12/21 08:48:37;;;;;;;1.58;1.05;;;;;;;;;;4972915;28;20047;-89
2023/12/21 08:51:03;;;;;;;1.70;1.10;;;;;;;;;;4957074;28;20039;-88
2023/12/21 08:53:28;;;;;;;1.88;1.10;;;;;;;;;;4956832;28;20039;-88
2023/12/21 08:55:54;;;;;;;2.08;1.05;;;;;;;;;;4957098;28;20094;-87
2023/12/21 08:58:31;;;;;;;2.85;1.00;;;;;;;;;;4957755;28;20043;-87
2023/12/21 09:00:58;;;;;;;1.98;1.30;;;;;;;;;;4968889;28;20035;-88
2023/12/21 09:03:24;;;;;;;2.30;1.30;;;;;;;;;;4958070;28;20042;-88
2023/12/21 09:05:50;;;;;;;1.88;1.30;;;;;;;;;;4954838;28;20039;-88
2023/12/21 09:08:16;;;;;;;2.03;1.20;;;;;;;;;;4956808;28;20058;-89
2023/12/21 09:10:41;;;;;;;2.00;1.17;;;;;;;;;;4967590;28;20513;-88
2023/12/21 09:13:07;;;;;;;2.00;1.10;;;;;;;;;;4958239;28;20067;-88
2023/12/21 09:15:32;;;;;;;2.95;1.00;;;;;;;;;;4957415;28;20035;-88
2023/12/21 09:17:58;;;;;;;1.88;1.23;;;;;;;;;;4958205;28;20027;-88
2023/12/21 09:20:24;;;;;;;1.63;1.10;;;;;;;;;;4959110;28;20101;-87
2023/12/21 09:22:50;;;;;;;2.20;1.20;;;;;;;;;;4956952;28;20396;-88
2023/12/21 09:25:15;;;;;;;2.38;1.20;;;;;;;;;;4957784;29;20039;-88
2023/12/21 09:27:41;;;;;;;2.40;1.30;;;;;;;;;;4969407;28;20070;-87
2023/12/21 09:30:07;;;;;;;2.00;1.25;;;;;;;;;;4966960;28;20039;-86
2023/12/21 09:32:32;;;;;;;3.53;1.20;;;;;;;;;;4955039;28;20036;-84
2023/12/21 09:34:58;;;;;;;1.90;1.13;;;;;;;;;;4958768;28;20536;-87
2023/12/21 09:37:23;;;;;;;4.00;2.40;;;;;;;;;;4961904;28;20114;-87
2023/12/21 09:39:49;;;;;;;2.22;1.00;;;;;;;;;;4971947;28;20062;-88
2023/12/21 09:42:15;;;;;;;1.63;1.17;;;;;;;;;;4956527;28;20047;-87
2023/12/21 09:44:46;;;;;;;2.03;1.40;;;;;;;;;;4954546;28;20049;-86
2023/12/21 09:47:13;;;;;;;2.45;1.40;;;;;;;;;;4958169;28;20046;-86
2023/12/21 09:49:41;;;;;;;1.83;1.30;;;;;;;;;;4957437;29;20032;-87
2023/12/21 09:52:08;;;;;;;1.85;1.20;;;;;;;;;;4971084;28;20173;-88
2023/12/21 09:54:39;;;;;;;1.48;1.10;;;;;;;;;;4959775;29;20050;-87
2023/12/21 09:57:05;;;;;;;2.15;1.33;;;;;;;;;;4962331;29;20039;-88
2023/12/21 09:59:34;;;;;;;3.03;1.70;;;;;;;;;;4953928;28;20039;-86
2023/12/21 10:02:01;;;;;;;1.80;1.23;;;;;;;;;;4951535;29;20042;-88
2023/12/21 10:04:26;;;;;;;1.23;0.82;;;;;;;;;;4954521;28;20414;-89
2023/12/21 10:06:52;;;;;;;1.60;1.13;;;;;;;;;;4951879;28;20027;-88
2023/12/21 10:09:18;;;;;;;1.60;1.08;;;;;;;;;;4952156;28;20038;-88
2023/12/21 10:11:44;;;;;;;2.03;1.27;;;;;;;;;;4946634;28;20031;-89
2023/12/21 10:14:21;;;;;;;2.15;1.30;;;;;;;;;;4953153;28;20434;-88
2023/12/21 10:16:46;;;;;;;2.20;1.30;;;;;;;;;;4952952;28;20042;-88
2023/12/21 10:19:16;;;;;;;2.17;1.10;;;;;;;;;;4953752;28;20094;-88
2023/12/21 10:21:42;;;;;;;1.35;1.10;;;;;;;;;;4967534;28;20040;-88
2023/12/21 10:24:08;;;;;;;1.20;1.00;;;;;;;;;;4951336;28;20098;-88
2023/12/21 10:26:47;;;;;;;1.63;1.00;;;;;;;;;;4954840;28;20058;-88
2023/12/21 10:29:14;;;;;;;1.50;1.00;;;;;;;;;;4954229;29;20374;-88
2023/12/21 10:31:43;;;;;;;2.28;1.40;;;;;;;;;;4953885;28;20043;-88
2023/12/21 10:34:09;;;;;;;2.15;1.50;;;;;;;;;;4968165;28;20122;-88
2023/12/21 10:36:38;;;;;;;1.58;1.10;;;;;;;;;;4952653;29;20565;-88
2023/12/21 10:39:04;;;;;;;1.85;1.23;;;;;;;;;;4953417;29;20063;-87
2023/12/21 10:41:30;;;;;;;2.03;1.20;;;;;;;;;;4950199;28;20508;-88
2023/12/21 10:43:56;;;;;;;4.28;2.35;;;;;;;;;;4951663;28;20035;-88
2023/12/21 10:46:22;;;;;;;3.88;2.47;;;;;;;;;;4951348;28;20058;-88
2023/12/21 10:48:48;;;;;;;2.78;1.63;;;;;;;;;;4951652;28;20038;-87
2023/12/21 10:51:16;;;;;;;2.55;1.85;;;;;;;;;;4964659;28;20035;-87
2023/12/21 10:53:42;;;;;;;2.42;1.52;;;;;;;;;;4951246;28;20039;-89
2023/12/21 10:56:09;;;;;;;2.40;1.65;;;;;;;;;;4953198;28;20035;-88
2023/12/21 10:58:35;;;;;;;3.90;1.80;;;;;;;;;;4953106;28;20135;-88
2023/12/21 11:01:02;;;;;;;2.92;1.90;;;;;;;;;;4952320;28;20489;-90
2023/12/21 11:03:28;;;;;;;2.45;1.63;;;;;;;;;;4953339;28;20040;-89
2023/12/21 11:05:55;;;;;;;3.50;1.70;;;;;;;;;;4953173;29;20520;-86
2023/12/21 11:08:22;;;;;;;2.60;1.55;;;;;;;;;;4953883;28;20047;-89
2023/12/21 11:10:49;;;;;;;3.45;1.73;;;;;;;;;;4952330;28;20631;-89
2023/12/21 11:13:14;;;;;;;3.60;2.15;;;;;;;;;;4954070;28;20098;-89
2023/12/21 11:15:40;;;;;;;3.20;1.90;;;;;;;;;;4952666;28;20039;-90
2023/12/21 11:18:10;;;;;;;4.18;2.08;;;;;;;;;;4967014;28;20046;-90
2023/12/21 11:20:45;;;;;;;1.70;1.00;;;;;;;;;;4952688;29;20681;-90
2023/12/21 11:23:11;;;;;;;1.25;0.80;;;;;;;;;;4953575;28;20094;-91
2023/12/21 11:25:36;;;;;;;1.13;0.90;;;;;;;;;;4950079;28;20062;-91
2023/12/21 11:28:04;;;;;;;2.75;1.10;;;;;;;;;;4951616;28;20054;-91
2023/12/21 11:30:32;;;;;;;1.45;1.10;;;;;;;;;;4948829;29;20039;-91
2023/12/21 11:33:09;;;;;;;2.13;0.70;;;;;;;;;;4958339;28;20074;-90
2023/12/21 11:35:35;;;;;;;2.15;0.80;;;;;;;;;;4957074;29;20146;-90
2023/12/21 11:38:05;;;;;;;2.13;1.10;;;;;;;;;;4971524;28;20035;-91
2023/12/21 11:40:31;;;;;;;1.15;0.90;;;;;;;;;;4947874;29;20125;-92
2023/12/21 11:42:59;;;;;;;1.05;0.90;;;;;;;;;;4954564;28;20031;-92
2023/12/21 11:45:28;;;;;;;1.38;0.90;;;;;;;;;;4956550;28;20063;-90
2023/12/21 11:47:55;;;;;;;1.52;0.93;;;;;;;;;;4953997;28;20035;-91
2023/12/21 11:50:23;;;;;;;1.50;1.20;;;;;;;;;;4952218;28;20027;-91
2023/12/21 11:52:48;;;;;;;2.97;1.20;;;;;;;;;;4955543;28;20047;-88
2023/12/21 11:55:25;;;;;;;3.55;1.50;;;;;;;;;;4955474;28;20032;-87
2023/12/21 11:58:25;;;;;;;2.97;1.42;;;;;;;;;;4955131;29;20034;-90
2023/12/21 12:00:55;;;;;;;2.50;1.40;;;;;;;;;;4953183;29;20031;-93
2023/12/21 12:03:28;;;;;;;1.33;0.90;;;;;;;;;;4952799;29;20521;-91
2023/12/21 12:06:01;;;;;;;1.30;0.85;;;;;;;;;;4956217;29;20098;-89
2023/12/21 12:08:26;;;;;;;1.75;1.10;;;;;;;;;;4958080;28;20050;-90
2023/12/21 12:10:59;;;;;;;1.70;1.00;;;;;;;;;;4957482;28;20042;-90
2023/12/21 12:13:25;;;;;;;2.30;1.13;;;;;;;;;;4959304;28;20038;-89
2023/12/21 12:15:52;;;;;;;0.98;0.80;;;;;;;;;;4957477;28;20039;-89
2023/12/21 12:18:21;;;;;;;1.05;0.80;;;;;;;;;;4958223;28;20098;-89
2023/12/21 12:20:47;;;;;;;1.00;0.70;;;;;;;;;;4954667;29;20055;-88
2023/12/21 12:23:14;;;;;;;1.30;0.70;;;;;;;;;;4956892;28;20081;-88
2023/12/21 12:25:41;;;;;;;0.80;0.65;;;;;;;;;;4954716;28;20454;-88
2023/12/21 12:28:08;;;;;;;0.90;0.60;;;;;;;;;;4956752;29;20521;-88
2023/12/21 12:30:35;;;;;;;1.55;0.80;;;;;;;;;;4958999;28;20402;-88
2023/12/21 12:33:03;;;;;;;2.33;0.82;;;;;;;;;;4953595;28;20041;-89
2023/12/21 12:35:32;;;;;;;1.80;0.80;;;;;;;;;;4957636;28;20042;-88
2023/12/21 12:37:58;;;;;;;1.02;0.68;;;;;;;;;;4956613;29;20097;-88
2023/12/21 12:40:24;;;;;;;2.65;0.98;;;;;;;;;;4956132;28;20545;-89
2023/12/21 12:42:53;;;;;;;1.88;1.10;;;;;;;;;;4955450;29;20129;-89
2023/12/21 12:45:18;;;;;;;2.75;1.40;;;;;;;;;;4953906;28;20117;-88
2023/12/21 12:47:45;;;;;;;2.50;1.67;;;;;;;;;;4955668;28;20493;-88
2023/12/21 12:50:11;;;;;;;2.10;1.30;;;;;;;;;;4973753;28;20098;-88
2023/12/21 12:52:45;;;;;;;2.05;1.30;;;;;;;;;;4958777;28;20493;-88
2023/12/21 12:55:13;;;;;;;;;;;;;;;;;;4956611;29;20036;-87
2023/12/21 12:57:45;;;;;;;2.63;0.98;;;;;;;;;;4958548;28;19938;-88
2023/12/21 13:00:12;;;;;;;2.75;1.48;;;;;;;;;;4957243;28;20561;-90
2023/12/21 13:02:38;;;;;;;1.30;0.85;;;;;;;;;;4968526;28;20035;-90
2023/12/21 13:05:05;;;;;;;2.08;1.30;;;;;;;;;;4953096;29;20066;-89
2023/12/21 13:07:30;;;;;;;1.67;1.00;;;;;;;;;;4955227;28;20035;-89
2023/12/21 13:09:56;;;;;;;1.30;0.90;;;;;;;;;;4954150;28;20564;-90
2023/12/21 13:12:23;;;;;;;1.90;0.90;;;;;;;;;;4951669;28;20142;-90
2023/12/21 13:14:49;;;;;;;2.25;0.90;;;;;;;;;;4969163;28;20441;-89
2023/12/21 13:17:16;;;;;;;2.70;1.00;;;;;;;;;;4955118;28;20039;-90
2023/12/21 13:19:43;;;;;;;0.95;0.70;;;;;;;;;;4952397;29;20586;-91
2023/12/21 13:22:11;;;;;;;1.35;0.75;;;;;;;;;;4953657;28;20023;-90
2023/12/21 13:24:38;;;;;;;1.02;0.70;;;;;;;;;;4953703;29;20043;-90
2023/12/21 13:27:03;;;;;;;1.33;0.90;;;;;;;;;;4950778;28;20054;-92
2023/12/21 13:29:29;;;;;;;1.67;0.90;;;;;;;;;;4953796;29;20039;-93
2023/12/21 13:31:54;;;;;;;2.33;0.95;;;;;;;;;;4952102;28;20488;-90
2023/12/21 13:34:20;;;;;;;1.35;0.90;;;;;;;;;;4946352;28;20562;-90
2023/12/21 13:36:45;;;;;;;1.23;0.90;;;;;;;;;;4957434;28;20032;-88
2023/12/21 13:39:11;;;;;;;2.72;0.98;;;;;;;;;;4959648;28;20058;-89
2023/12/21 13:41:39;;;;;;;1.92;0.95;;;;;;;;;;4957564;28;20552;-89
2023/12/21 13:44:05;;;;;;;1.10;0.90;;;;;;;;;;4955062;28;20106;-90
2023/12/21 13:46:30;;;;;;;2.20;1.50;;;;;;;;;;4954225;28;20051;-90
2023/12/21 13:48:56;;;;;;;2.03;1.02;;;;;;;;;;4955660;28;20501;-90
2023/12/21 13:51:21;;;;;;;1.85;1.10;;;;;;;;;;4953800;28;20450;-89
2023/12/21 13:53:47;;;;;;;4.63;2.42;;;;;;;;;;4954942;28;20489;-89
2023/12/21 13:56:13;;;;;;;3.67;1.63;;;;;;;;;;4956226;28;20051;-89
2023/12/21 13:58:39;;;;;;;2.13;1.27;;;;;;;;;;4970319;28;20036;-89
2023/12/21 14:01:06;;;;;;;1.85;1.20;;;;;;;;;;4954882;28;20214;-89
2023/12/21 14:03:31;;;;;;;1.75;1.20;;;;;;;;;;4949201;28;20030;-89
2023/12/21 14:05:57;;;;;;;2.20;1.25;;;;;;;;;;4925766;29;20035;-89
2023/12/21 14:08:23;;;;;;;2.90;2.00;;;;;;;;;;4934528;29;20058;-89
2023/12/21 14:10:48;;;;;;;1.95;1.10;;;;;;;;;;4967069;28;20035;-88
2023/12/21 14:13:14;;;;;;;3.42;1.60;;;;;;;;;;4952311;28;20035;-91
2023/12/21 14:15:40;;;;;;;3.55;1.20;;;;;;;;;;4965732;28;20058;-91
2023/12/21 14:18:06;;;;;;;2.28;1.00;;;;;;;;;;4954844;28;20046;-89
2023/12/21 14:20:32;;;;;;;1.23;0.90;;;;;;;;;;4953291;29;20105;-91
2023/12/21 14:22:57;;;;;;;0.82;0.70;;;;;;;;;;4953554;28;20098;-90
2023/12/21 14:25:23;;;;;;;2.40;1.60;;;;;;;;;;4951955;28;20028;-90
2023/12/21 14:27:48;;;;;;;1.58;1.00;;;;;;;;;;4954100;28;20043;-90
2023/12/21 14:30:14;;;;;;;3.10;1.50;;;;;;;;;;4954565;28;20391;-89
2023/12/21 14:32:39;;;;;;;2.80;1.60;;;;;;;;;;4946628;28;20036;-90
2023/12/21 14:35:05;;;;;;;5.22;2.50;;;;;;;;;;4953496;28;20054;-91
2023/12/21 14:37:31;;;;;;;4.45;2.00;;;;;;;;;;4952727;28;20031;-90